Time;durP1;ratioP1;P1;durP2;ratioP2;P2;SDS_P1;SDS_P2;PMS_P1;PMS_P2;Temp;Humidity;BMP_temperature;BMP_pressure;BME280_temperature;BME280_humidity;BME280_pressure;Samples;Min_cycle;Max_cycle;Signal;HPM_P1;HPM_P2
2022/03/26 00:00:37;;;;;;;60.22;31.73;;;5.90;99.90;;;;;;5051978;28;20119;-86
2022/03/26 00:03:26;;;;;;;60.33;32.97;;;6.00;99.90;;;;;;5048027;28;20100;-86
2022/03/26 00:05:52;;;;;;;68.35;32.95;;;5.90;99.90;;;;;;5048948;28;20556;-86
2022/03/26 00:08:20;;;;;;;67.07;34.13;;;5.90;99.90;;;;;;5033261;28;20100;-86
2022/03/26 00:10:46;;;;;;;76.55;36.92;;;5.90;99.90;;;;;;5033477;28;20032;-85
2022/03/26 00:13:12;;;;;;;71.22;33.97;;;5.90;99.90;;;;;;5039134;28;20020;-85
2022/03/26 00:15:38;;;;;;;71.15;35.30;;;5.90;99.90;;;;;;5052829;28;20461;-85
2022/03/26 00:18:03;;;;;;;65.40;33.25;;;5.90;99.90;;;;;;5052789;28;20028;-85
2022/03/26 00:20:31;;;;;;;75.22;37.17;;;5.90;99.90;;;;;;5052882;28;20033;-85
2022/03/26 00:22:57;;;;;;;74.22;36.00;;;6.00;99.90;;;;;;5034881;28;20161;-85
2022/03/26 00:25:22;;;;;;;70.75;34.78;;;5.90;99.90;;;;;;5051583;28;20479;-85
2022/03/26 00:27:49;;;;;;;69.80;35.50;;;5.90;99.90;;;;;;5052490;28;20035;-85
2022/03/26 00:30:14;;;;;;;68.22;34.45;;;5.80;99.90;;;;;;5052483;28;20052;-85
2022/03/26 00:32:44;;;;;;;83.60;37.42;;;5.80;99.90;;;;;;5034090;28;20025;-85
2022/03/26 00:35:09;;;;;;;64.05;34.60;;;5.70;99.90;;;;;;5032813;28;20030;-85
2022/03/26 00:37:44;;;;;;;77.32;35.92;;;5.70;99.90;;;;;;5050638;28;20079;-85
2022/03/26 00:40:10;;;;;;;81.30;37.53;;;5.70;99.90;;;;;;5052724;28;20028;-86
2022/03/26 00:42:36;;;;;;;71.97;35.22;;;5.70;99.90;;;;;;5051832;28;20394;-86
2022/03/26 00:45:20;;;;;;;62.50;32.10;;;5.70;99.90;;;;;;5052580;28;20025;-86
2022/03/26 00:47:45;;;;;;;64.93;32.53;;;5.70;99.90;;;;;;5049837;28;20035;-86
2022/03/26 00:50:11;;;;;;;71.32;34.42;;;5.70;99.90;;;;;;5032625;28;20030;-87
2022/03/26 00:52:48;;;;;;;69.07;34.20;;;5.60;99.90;;;;;;5049647;28;20439;-86
2022/03/26 00:55:31;;;;;;;61.45;32.90;;;5.60;99.90;;;;;;5052263;28;20085;-85
2022/03/26 00:57:56;;;;;;;64.55;35.05;;;5.60;99.90;;;;;;5044995;28;20406;-85
2022/03/26 01:00:22;;;;;;;69.65;34.67;;;5.60;99.90;;;;;;5015186;28;20116;-85
2022/03/26 01:02:48;;;;;;;61.70;31.52;;;5.60;99.90;;;;;;5037398;28;20053;-87
2022/03/26 01:05:13;;;;;;;73.80;35.88;;;5.50;99.90;;;;;;5052381;28;20424;-86
2022/03/26 01:07:56;;;;;;;76.18;35.63;;;5.50;99.90;;;;;;5054663;28;20021;-86
2022/03/26 01:10:22;;;;;;;72.07;34.50;;;5.50;99.90;;;;;;5055125;28;20116;-86
2022/03/26 01:12:49;;;;;;;71.22;34.55;;;5.50;99.90;;;;;;5038263;28;20064;-86
2022/03/26 01:15:14;;;;;;;76.00;37.63;;;5.40;99.90;;;;;;5056402;28;20477;-86
2022/03/26 01:17:40;;;;;;;74.93;36.38;;;5.40;99.90;;;;;;5054952;28;20024;-86
2022/03/26 01:20:08;;;;;;;67.68;34.50;;;5.40;99.90;;;;;;5056551;28;20050;-86
2022/03/26 01:22:33;;;;;;;74.57;35.17;;;5.40;99.90;;;;;;5055066;28;20083;-86
2022/03/26 01:24:59;;;;;;;69.15;35.55;;;5.40;99.90;;;;;;5056065;28;20029;-86
2022/03/26 01:27:41;;;;;;;67.65;32.92;;;5.30;99.90;;;;;;5055545;28;20028;-86
2022/03/26 01:30:07;;;;;;;73.65;36.38;;;5.30;99.90;;;;;;5055775;28;20481;-86
2022/03/26 01:32:33;;;;;;;66.25;34.72;;;5.30;99.90;;;;;;5052777;28;20041;-86
2022/03/26 01:34:59;;;;;;;71.07;36.30;;;5.30;99.90;;;;;;5035810;28;20056;-86
2022/03/26 01:37:24;;;;;;;81.38;38.67;;;5.20;99.90;;;;;;5036046;28;20049;-86
2022/03/26 01:40:05;;;;;;;71.38;33.53;;;5.20;99.90;;;;;;5035939;28;20080;-86
2022/03/26 01:42:31;;;;;;;63.15;32.53;;;5.20;99.90;;;;;;5017456;28;20025;-86
2022/03/26 01:44:57;;;;;;;70.72;36.03;;;5.20;99.90;;;;;;5022230;28;20025;-86
2022/03/26 01:47:23;;;;;;;73.00;34.22;;;5.20;99.90;;;;;;5035905;28;20047;-86
2022/03/26 01:49:50;;;;;;;61.33;34.15;;;5.20;99.90;;;;;;5053743;28;20025;-86
2022/03/26 01:52:17;;;;;;;74.55;35.08;;;5.20;99.90;;;;;;5055343;28;20025;-86
2022/03/26 01:55:13;;;;;;;63.88;32.85;;;5.20;99.90;;;;;;5044590;28;20440;-86
2022/03/26 01:57:40;;;;;;;74.55;34.38;;;5.10;99.90;;;;;;5075126;28;20023;-86
2022/03/26 02:00:08;;;;;;;67.93;34.28;;;5.10;99.90;;;;;;5074269;28;20051;-86
2022/03/26 02:02:51;;;;;;;72.18;34.78;;;5.10;99.90;;;;;;5070296;28;20035;-86
2022/03/26 02:05:19;;;;;;;69.43;33.85;;;5.10;99.90;;;;;;5037494;28;20032;-86
2022/03/26 02:07:46;;;;;;;72.65;35.42;;;5.10;99.90;;;;;;5043649;28;20020;-86
2022/03/26 02:10:19;;;;;;;66.03;34.63;;;5.10;99.90;;;;;;5075128;28;20029;-86
2022/03/26 02:12:46;;;;;;;68.07;32.78;;;4.90;99.90;;;;;;5068945;28;20036;-86
2022/03/26 02:15:13;;;;;;;74.35;36.30;;;5.00;99.90;;;;;;5055193;28;20067;-85
2022/03/26 02:17:47;;;;;;;70.18;33.67;;;4.90;99.90;;;;;;5061721;28;20025;-85
2022/03/26 02:20:14;;;;;;;70.95;34.15;;;4.90;99.90;;;;;;5055235;28;20063;-85
2022/03/26 02:22:40;;;;;;;78.70;35.38;;;4.90;99.90;;;;;;5056818;28;20078;-85
2022/03/26 02:25:08;;;;;;;65.75;33.28;;;4.90;99.90;;;;;;5075139;28;20021;-86
2022/03/26 02:27:34;;;;;;;76.18;34.78;;;4.80;99.90;;;;;;5070668;28;20076;-85
2022/03/26 02:29:59;;;;;;;76.75;38.22;;;4.80;99.90;;;;;;5054898;28;20413;-85
2022/03/26 02:32:27;;;;;;;73.10;33.95;;;4.80;99.90;;;;;;5065898;28;20103;-85
2022/03/26 02:34:53;;;;;;;65.65;35.83;;;4.80;99.90;;;;;;5074971;28;20035;-85
2022/03/26 02:37:19;;;;;;;65.95;33.83;;;4.80;99.90;;;;;;5074510;28;20024;-85
2022/03/26 02:39:46;;;;;;;66.43;33.40;;;4.80;99.90;;;;;;5074940;28;20025;-85
2022/03/26 02:42:13;;;;;;;68.78;35.47;;;4.80;99.90;;;;;;5055489;28;20067;-85
2022/03/26 02:44:51;;;;;;;72.40;34.72;;;4.70;99.90;;;;;;5074510;28;20541;-85
2022/03/26 02:47:17;;;;;;;78.57;34.58;;;4.80;99.90;;;;;;5074601;28;20028;-85
2022/03/26 02:49:44;;;;;;;65.85;33.88;;;4.70;99.90;;;;;;5074561;28;20454;-86
2022/03/26 02:52:09;;;;;;;67.22;33.60;;;4.70;99.90;;;;;;5074790;28;20066;-86
2022/03/26 02:54:35;;;;;;;65.07;32.70;;;4.70;99.90;;;;;;5055308;28;20492;-86
2022/03/26 02:57:01;;;;;;;71.15;35.03;;;4.70;99.90;;;;;;5073011;28;20159;-86
2022/03/26 02:59:28;;;;;;;70.05;35.15;;;4.70;99.90;;;;;;5073497;28;20031;-86
2022/03/26 03:02:13;;;;;;;78.20;38.20;;;4.70;99.90;;;;;;5073412;28;20461;-86
2022/03/26 03:04:39;;;;;;;88.53;35.03;;;4.60;99.90;;;;;;5072278;28;20380;-86
2022/03/26 03:07:04;;;;;;;72.25;35.92;;;4.60;99.90;;;;;;5072071;28;20039;-86
2022/03/26 03:09:36;;;;;;;65.00;32.28;;;4.60;99.90;;;;;;5073269;28;20021;-86
2022/03/26 03:12:02;;;;;;;65.32;31.65;;;4.60;99.90;;;;;;5072766;28;20040;-86
2022/03/26 03:14:30;;;;;;;61.67;30.92;;;4.60;99.90;;;;;;5072893;28;20012;-86
2022/03/26 03:16:55;;;;;;;59.47;30.80;;;4.60;99.90;;;;;;5072970;28;20028;-85
2022/03/26 03:19:27;;;;;;;66.43;30.67;;;4.60;99.90;;;;;;5072682;28;20029;-86
2022/03/26 03:21:52;;;;;;;63.70;32.45;;;4.60;99.90;;;;;;5072887;28;20511;-85
2022/03/26 03:24:18;;;;;;;68.15;31.00;;;4.60;99.90;;;;;;5059206;28;20079;-86
2022/03/26 03:26:57;;;;;;;67.22;33.70;;;4.60;99.90;;;;;;5052875;28;20036;-85
2022/03/26 03:29:23;;;;;;;75.03;33.28;;;4.60;99.90;;;;;;5065536;28;20025;-85
2022/03/26 03:31:48;;;;;;;69.88;34.38;;;4.50;99.90;;;;;;5073025;28;20495;-85
2022/03/26 03:34:15;;;;;;;64.25;32.65;;;4.50;99.90;;;;;;5072819;28;20552;-85
2022/03/26 03:36:41;;;;;;;73.43;34.33;;;4.50;99.90;;;;;;5072764;28;20373;-85
2022/03/26 03:39:06;;;;;;;70.88;32.50;;;4.50;99.90;;;;;;5072557;28;20029;-85
2022/03/26 03:42:00;;;;;;;65.70;34.03;;;4.50;99.90;;;;;;5054555;28;20043;-85
2022/03/26 03:44:26;;;;;;;68.55;32.90;;;4.50;99.90;;;;;;5061445;28;20033;-85
2022/03/26 03:46:52;;;;;;;66.68;33.47;;;4.50;99.90;;;;;;5072681;28;20028;-85
2022/03/26 03:49:32;;;;;;;64.13;31.65;;;4.50;99.90;;;;;;5072457;28;20027;-85
2022/03/26 03:51:58;;;;;;;67.28;32.13;;;4.40;99.90;;;;;;5071166;28;20075;-84
2022/03/26 03:57:18;;;;;;;68.63;33.35;;;4.40;99.90;;;;;;5110350;27;20385;-87
2022/03/26 03:59:44;;;;;;;81.00;35.20;;;4.40;99.90;;;;;;5110436;28;20081;-87
2022/03/26 04:02:10;;;;;;;76.82;34.08;;;4.40;99.90;;;;;;5109177;28;20024;-87
2022/03/26 04:04:41;;;;;;;72.70;34.25;;;4.30;99.90;;;;;;5110644;28;20023;-86
2022/03/26 04:07:09;;;;;;;66.72;34.20;;;4.30;99.90;;;;;;5093279;28;20472;-87
2022/03/26 04:09:36;;;;;;;75.88;33.45;;;4.30;99.90;;;;;;5090146;28;20029;-86
2022/03/26 04:12:10;;;;;;;72.88;32.10;;;4.30;99.90;;;;;;5089573;28;20035;-87
2022/03/26 04:14:38;;;;;;;70.03;31.63;;;4.40;99.90;;;;;;5089008;28;20123;-86
2022/03/26 04:17:05;;;;;;;60.88;30.42;;;4.40;99.90;;;;;;5090403;28;20173;-86
2022/03/26 04:19:31;;;;;;;68.57;30.70;;;4.30;99.90;;;;;;5094792;28;20020;-86
2022/03/26 04:22:11;;;;;;;71.10;30.55;;;4.30;99.90;;;;;;5090141;28;20093;-87
2022/03/26 04:24:47;;;;;;;66.20;30.70;;;4.30;99.90;;;;;;5089713;28;20484;-86
2022/03/26 04:27:13;;;;;;;65.72;31.20;;;4.30;99.90;;;;;;5089298;28;20017;-87
2022/03/26 04:29:39;;;;;;;62.53;30.33;;;4.20;99.90;;;;;;5089846;28;20039;-86
2022/03/26 04:32:06;;;;;;;64.75;30.90;;;4.30;99.90;;;;;;5089751;28;20017;-86
2022/03/26 04:34:32;;;;;;;70.93;32.38;;;4.30;99.90;;;;;;5109955;28;20091;-86
2022/03/26 04:36:58;;;;;;;66.60;31.77;;;4.20;99.90;;;;;;5108426;28;20499;-85
2022/03/26 04:39:24;;;;;;;73.72;33.40;;;4.20;99.90;;;;;;5108924;28;20020;-86
2022/03/26 04:41:50;;;;;;;67.57;31.25;;;4.20;99.90;;;;;;5108905;28;20031;-85
2022/03/26 04:44:30;;;;;;;76.63;32.00;;;4.20;99.90;;;;;;5108006;28;20026;-85
2022/03/26 04:46:55;;;;;;;81.20;34.42;;;4.20;99.90;;;;;;5088162;28;20028;-85
2022/03/26 04:49:31;;;;;;;81.10;33.90;;;4.10;99.90;;;;;;5091493;28;20026;-85
2022/03/26 04:51:57;;;;;;;75.50;33.17;;;4.10;99.90;;;;;;5108111;28;20039;-85
2022/03/26 04:54:48;;;;;;;71.72;31.48;;;4.10;99.90;;;;;;5095956;28;20032;-85
2022/03/26 04:57:15;;;;;;;74.45;29.90;;;4.10;99.90;;;;;;5109021;28;20040;-86
2022/03/26 04:59:40;;;;;;;73.32;30.50;;;4.10;99.90;;;;;;5092413;28;20020;-85
2022/03/26 05:02:13;;;;;;;81.25;34.05;;;4.10;99.90;;;;;;5090148;28;20024;-86
2022/03/26 05:04:39;;;;;;;72.68;31.33;;;4.10;99.90;;;;;;5088710;28;20096;-86
2022/03/26 05:09:59;;;;;;;81.30;33.55;;;4.10;99.90;;;;;;5075318;28;20039;-85
2022/03/26 05:12:36;;;;;;;94.25;34.67;;;4.00;99.90;;;;;;5074973;28;20029;-86
2022/03/26 05:15:02;;;;;;;79.53;32.22;;;4.00;99.90;;;;;;5075319;28;20024;-86
2022/03/26 05:17:42;;;;;;;90.57;36.15;;;4.10;99.90;;;;;;5086672;28;20395;-86
2022/03/26 05:20:11;;;;;;;88.15;35.38;;;4.20;99.90;;;;;;5078991;28;20082;-86
2022/03/26 05:22:45;;;;;;;83.95;32.92;;;4.10;99.90;;;;;;5095218;28;20020;-86
2022/03/26 05:25:12;;;;;;;100.28;36.45;;;4.00;99.90;;;;;;5094746;28;20039;-86
2022/03/26 05:27:42;;;;;;;93.22;37.25;;;4.00;99.90;;;;;;5083925;28;20035;-86
2022/03/26 05:30:18;;;;;;;79.95;32.90;;;4.00;99.90;;;;;;5076397;28;20032;-86
2022/03/26 05:32:44;;;;;;;79.20;32.45;;;4.10;99.90;;;;;;5076324;28;20033;-86
2022/03/26 05:35:16;;;;;;;69.47;29.98;;;4.10;99.90;;;;;;5095206;28;20039;-86
2022/03/26 05:37:46;;;;;;;73.15;31.13;;;4.00;99.90;;;;;;5095315;28;20035;-86
2022/03/26 05:40:34;;;;;;;87.80;34.80;;;4.10;99.90;;;;;;5095183;28;20031;-86
2022/03/26 05:43:00;;;;;;;77.90;32.42;;;4.10;99.90;;;;;;5094656;28;20064;-85
2022/03/26 05:45:32;;;;;;;90.72;35.20;;;4.10;99.90;;;;;;5095069;28;20545;-87
2022/03/26 05:48:01;;;;;;;83.10;34.97;;;4.10;99.90;;;;;;5093514;28;20031;-85
2022/03/26 05:50:28;;;;;;;94.20;36.78;;;4.10;99.90;;;;;;5076649;28;20599;-86
2022/03/26 05:53:04;;;;;;;99.47;36.45;;;4.10;99.90;;;;;;5074435;28;20480;-85
2022/03/26 05:55:41;;;;;;;87.95;35.13;;;4.20;99.90;;;;;;5074469;28;20044;-86
2022/03/26 05:58:06;;;;;;;96.28;37.75;;;4.30;99.90;;;;;;5074203;28;20020;-86
2022/03/26 06:00:49;;;;;;;109.50;37.78;;;4.30;99.90;;;;;;5074484;28;20028;-86
2022/03/26 06:03:17;;;;;;;96.00;36.45;;;4.40;99.90;;;;;;5074458;28;20544;-86
2022/03/26 06:05:42;;;;;;;96.90;40.13;;;4.50;99.90;;;;;;5074504;28;20032;-86
2022/03/26 06:08:09;;;;;;;101.32;36.17;;;4.60;99.90;;;;;;5079022;28;20516;-86
2022/03/26 06:10:35;;;;;;;98.15;37.72;;;4.60;99.90;;;;;;5093300;28;20020;-85
2022/03/26 06:13:37;;;;;;;95.35;37.03;;;4.70;99.90;;;;;;5094061;28;20043;-86
2022/03/26 06:16:02;;;;;;;107.97;39.08;;;4.80;99.90;;;;;;5086231;28;20024;-85
2022/03/26 06:18:28;;;;;;;93.60;34.72;;;4.90;99.90;;;;;;5073286;28;20032;-85
2022/03/26 06:21:16;;;;;;;84.10;32.83;;;5.00;99.90;;;;;;5085247;28;20107;-86
2022/03/26 06:23:41;;;;;;;84.78;34.80;;;5.00;99.90;;;;;;5086900;28;20376;-86
2022/03/26 06:26:14;;;;;;;88.03;34.65;;;5.20;99.90;;;;;;5080480;28;20077;-85
2022/03/26 06:28:40;;;;;;;81.32;33.60;;;5.30;99.90;;;;;;5092695;28;20023;-86
2022/03/26 06:31:12;;;;;;;79.07;33.65;;;5.30;99.90;;;;;;5094016;28;20392;-86
2022/03/26 06:33:38;;;;;;;89.85;36.38;;;5.40;99.90;;;;;;5093809;28;20107;-85
2022/03/26 06:36:04;;;;;;;91.82;35.95;;;5.60;99.90;;;;;;5091297;28;20602;-87
2022/03/26 06:38:44;;;;;;;89.90;35.33;;;5.70;99.90;;;;;;5093832;28;20357;-87
2022/03/26 06:41:10;;;;;;;97.32;38.17;;;5.80;99.90;;;;;;5092612;28;20023;-87
2022/03/26 06:43:39;;;;;;;96.15;37.58;;;5.90;99.90;;;;;;5081897;28;20024;-87
2022/03/26 06:46:04;;;;;;;98.05;36.33;;;6.00;99.90;;;;;;5073393;28;20043;-86
2022/03/26 06:48:48;;;;;;;92.55;34.67;;;6.20;99.90;;;;;;5072068;28;20021;-86
2022/03/26 06:51:14;;;;;;;86.13;33.13;;;6.50;99.90;;;;;;5073332;28;20031;-86
2022/03/26 06:53:40;;;;;;;94.38;33.90;;;6.70;99.90;;;;;;5088485;28;20024;-86
2022/03/26 06:56:09;;;;;;;88.78;34.60;;;7.00;99.90;;;;;;5073214;28;20127;-86
2022/03/26 06:58:35;;;;;;;84.15;32.65;;;7.20;99.90;;;;;;5072993;28;20020;-87
2022/03/26 07:01:20;;;;;;;84.88;34.97;;;7.30;99.90;;;;;;5073006;28;20027;-86
2022/03/26 07:03:47;;;;;;;100.40;36.50;;;7.40;99.90;;;;;;5073158;28;20021;-87
2022/03/26 07:06:18;;;;;;;98.60;34.33;;;7.60;99.90;;;;;;5073014;28;20265;-86
2022/03/26 07:08:44;;;;;;;93.32;34.75;;;7.90;99.90;;;;;;5087257;28;20020;-86
2022/03/26 07:11:12;;;;;;;86.75;33.17;;;8.10;99.90;;;;;;5088647;28;20510;-87
2022/03/26 07:13:38;;;;;;;89.57;30.38;;;8.40;99.90;;;;;;5084723;28;20048;-88
2022/03/26 07:16:04;;;;;;;85.38;32.70;;;8.50;99.90;;;;;;5072821;28;20146;-86
2022/03/26 07:18:29;;;;;;;111.75;38.67;;;8.70;99.90;;;;;;5072618;28;20358;-87
2022/03/26 07:20:59;;;;;;;108.55;38.30;;;8.90;99.90;;;;;;5088209;28;20073;-87
2022/03/26 07:23:34;;;;;;;98.57;36.28;;;9.00;99.90;;;;;;5072790;28;20357;-86
2022/03/26 07:26:00;;;;;;;100.50;39.23;;;9.10;99.90;;;;;;5072588;28;20020;-87
2022/03/26 07:28:26;;;;;;;97.63;37.30;;;9.20;99.90;;;;;;5088355;28;20029;-86
2022/03/26 07:30:52;;;;;;;90.82;37.50;;;9.30;99.90;;;;;;5088158;28;20032;-87
2022/03/26 07:33:21;;;;;;;92.72;37.10;;;9.40;99.90;;;;;;5072771;28;20103;-86
2022/03/26 07:35:47;;;;;;;95.65;37.58;;;9.50;99.90;;;;;;5088248;28;20111;-87
2022/03/26 07:38:20;;;;;;;92.93;34.78;;;9.50;99.90;;;;;;5071425;28;20055;-86
2022/03/26 07:40:47;;;;;;;87.28;37.38;;;9.60;99.90;;;;;;5072428;28;20494;-88
2022/03/26 07:43:17;;;;;;;98.63;37.95;;;9.70;99.90;;;;;;5072564;28;20103;-85
2022/03/26 07:45:43;;;;;;;92.00;38.38;;;9.70;99.90;;;;;;5071371;28;20020;-86
2022/03/26 07:48:23;;;;;;;99.65;37.33;;;9.70;99.90;;;;;;5072687;28;20029;-86
2022/03/26 07:50:49;;;;;;;92.22;36.83;;;9.70;99.90;;;;;;5072679;28;20027;-87
2022/03/26 07:54:01;;;;;;;92.50;37.15;;;9.80;99.90;;;;;;5072475;28;20025;-87
2022/03/26 07:56:43;;;;;;;93.65;36.67;;;9.80;99.90;;;;;;5072107;28;20053;-88
2022/03/26 07:59:08;;;;;;;79.78;33.00;;;10.00;99.90;;;;;;5072548;28;20025;-87
2022/03/26 08:01:36;;;;;;;79.30;34.20;;;10.00;99.90;;;;;;5072383;28;20035;-87
2022/03/26 08:04:02;;;;;;;91.32;33.45;;;10.10;99.90;;;;;;5072417;28;20021;-87
2022/03/26 08:06:37;;;;;;;79.65;31.67;;;10.20;99.90;;;;;;5071606;28;20468;-87
2022/03/26 08:09:03;;;;;;;74.18;30.60;;;10.30;99.90;;;;;;5087963;28;20027;-87
2022/03/26 08:11:34;;;;;;;72.05;29.38;;;10.40;99.90;;;;;;5087590;28;20063;-88
2022/03/26 08:14:00;;;;;;;79.43;31.45;;;10.50;99.90;;;;;;5087980;28;20020;-87
2022/03/26 08:16:42;;;;;;;66.57;28.42;;;10.60;99.90;;;;;;5072382;28;20503;-87
2022/03/26 08:19:07;;;;;;;58.92;25.02;;;10.70;99.90;;;;;;5072405;28;20048;-87
2022/03/26 08:21:35;;;;;;;64.40;25.60;;;10.80;99.90;;;;;;5072284;28;20059;-87
2022/03/26 08:24:02;;;;;;;56.45;22.05;;;10.90;99.90;;;;;;5072339;28;20434;-88
2022/03/26 08:26:33;;;;;;;45.80;22.40;;;11.10;99.90;;;;;;5070729;28;20025;-87
2022/03/26 08:29:00;;;;;;;47.60;23.05;;;11.30;99.90;;;;;;5087815;28;20488;-88
2022/03/26 08:31:30;;;;;;;51.05;23.65;;;11.40;99.90;;;;;;5071032;28;20025;-87
2022/03/26 08:33:56;;;;;;;39.28;17.88;;;11.50;99.90;;;;;;5072148;28;20023;-87
2022/03/26 08:36:22;;;;;;;32.20;17.30;;;11.50;99.90;;;;;;5072026;28;20024;-87
2022/03/26 08:38:49;;;;;;;30.60;16.10;;;11.70;99.90;;;;;;5072145;28;20095;-87
2022/03/26 08:41:23;;;;;;;33.17;16.00;;;11.80;99.90;;;;;;5071800;28;20023;-87
2022/03/26 08:43:50;;;;;;;31.23;14.35;;;11.90;99.90;;;;;;5075361;28;20380;-88
2022/03/26 08:46:19;;;;;;;27.92;13.73;;;12.00;99.90;;;;;;5075948;28;20449;-88
2022/03/26 08:48:45;;;;;;;30.42;13.63;;;12.10;99.90;;;;;;5091549;28;20115;-87
2022/03/26 08:51:17;;;;;;;29.52;13.63;;;12.20;99.90;;;;;;5075824;28;20112;-89
2022/03/26 08:53:43;;;;;;;33.42;14.68;;;12.20;99.90;;;;;;5075664;28;20385;-88
2022/03/26 08:56:09;;;;;;;30.08;14.77;;;12.20;99.90;;;;;;5074740;28;20056;-87
2022/03/26 08:58:57;;;;;;;37.20;17.17;;;12.40;99.90;;;;;;5075450;28;20465;-88
2022/03/26 09:01:23;;;;;;;41.15;14.40;;;12.50;99.90;;;;;;5075648;28;20074;-87
2022/03/26 09:03:51;;;;;;;28.52;14.13;;;12.60;99.90;;;;;;5075531;28;20037;-87
2022/03/26 09:06:17;;;;;;;21.10;12.50;;;12.50;99.90;;;;;;5075513;28;20376;-87
2022/03/26 09:09:00;;;;;;;26.65;12.38;;;12.60;99.90;;;;;;5091066;28;20074;-87
2022/03/26 09:11:26;;;;;;;23.98;13.77;;;12.80;99.90;;;;;;5075018;28;20020;-86
2022/03/26 09:14:12;;;;;;;23.00;12.85;;;12.80;99.90;;;;;;5090854;28;20119;-86
2022/03/26 09:16:38;;;;;;;27.98;13.32;;;12.80;99.90;;;;;;5075188;28;20492;-87
2022/03/26 09:19:04;;;;;;;25.00;12.43;;;12.90;99.90;;;;;;5075258;28;20024;-86
2022/03/26 09:21:29;;;;;;;27.25;12.00;;;13.10;99.90;;;;;;5075325;28;20023;-88
2022/03/26 09:23:58;;;;;;;23.50;11.35;;;13.10;99.90;;;;;;5090576;28;20047;-87
2022/03/26 09:26:24;;;;;;;18.90;11.93;;;13.10;99.90;;;;;;5090360;28;20129;-88
2022/03/26 09:28:55;;;;;;;32.40;12.00;;;13.10;99.90;;;;;;5090995;28;20551;-86
2022/03/26 09:31:20;;;;;;;22.45;10.85;;;13.30;99.90;;;;;;5075064;28;20036;-86
2022/03/26 09:33:47;;;;;;;29.30;12.13;;;13.30;99.90;;;;;;5074924;28;20029;-88
2022/03/26 09:36:12;;;;;;;29.60;14.50;;;13.30;99.90;;;;;;5074677;28;20427;-87
2022/03/26 09:38:56;;;;;;;20.92;12.45;;;13.40;99.90;;;;;;5074903;28;20024;-87
2022/03/26 09:41:25;;;;;;;28.42;12.48;;;13.50;99.90;;;;;;5074526;28;20377;-87
2022/03/26 09:43:54;;;;;;;25.58;12.98;;;13.50;99.90;;;;;;5090372;28;20021;-88
2022/03/26 09:46:20;;;;;;;28.55;12.98;;;13.60;99.90;;;;;;5074624;28;20039;-88
2022/03/26 09:48:48;;;;;;;24.85;13.40;;;13.60;99.90;;;;;;5074744;28;20025;-89
2022/03/26 09:51:15;;;;;;;31.27;13.82;;;13.70;99.90;;;;;;5074491;28;20021;-86
2022/03/26 09:53:43;;;;;;;27.23;13.30;;;13.70;99.90;;;;;;5074680;28;20021;-88
2022/03/26 09:56:19;;;;;;;28.10;13.88;;;13.80;99.90;;;;;;5074027;28;20059;-86
2022/03/26 09:58:44;;;;;;;39.75;13.55;;;13.80;99.90;;;;;;5074550;28;20104;-88
2022/03/26 10:01:28;;;;;;;25.98;14.00;;;13.90;99.90;;;;;;5073039;28;20468;-89
2022/03/26 10:04:13;;;;;;;205.10;107.03;;;13.90;99.90;;;;;;5089936;28;20361;-87
2022/03/26 10:06:51;;;;;;;26.40;13.20;;;13.90;99.90;;;;;;5090516;28;20036;-87
2022/03/26 10:09:36;;;;;;;25.73;13.90;;;13.90;99.90;;;;;;5074264;28;20693;-87
2022/03/26 10:12:34;;;;;;;33.88;15.30;;;14.00;99.90;;;;;;5089487;28;20503;-89
2022/03/26 10:15:01;;;;;;;31.50;13.93;;;14.10;99.90;;;;;;5074299;28;20125;-87
2022/03/26 10:17:31;;;;;;;27.48;15.10;;;14.20;99.90;;;;;;5074063;28;20384;-88
2022/03/26 10:20:04;;;;;;;33.13;14.05;;;14.20;99.90;;;;;;5074836;28;20023;-87
2022/03/26 10:22:36;;;;;;;32.65;17.05;;;14.30;99.90;;;;;;5093136;28;20032;-90
2022/03/26 10:25:04;;;;;;;27.63;13.85;;;14.20;99.90;;;;;;5089064;28;20017;-89
2022/03/26 10:28:00;;;;;;;21.48;12.07;;;14.30;99.90;;;;;;5092044;28;20031;-89
2022/03/26 10:33:27;;;;;;;23.60;12.13;;;14.20;99.90;;;;;;5074571;28;20046;-91
2022/03/26 10:35:58;;;;;;;16.50;10.00;;;14.20;99.90;;;;;;5083396;28;20028;-87
2022/03/26 10:38:45;;;;;;;24.15;11.63;;;14.30;99.90;;;;;;5090786;28;20028;-90
2022/03/26 10:41:23;;;;;;;15.00;8.98;;;14.30;99.90;;;;;;5076934;28;20024;-89
2022/03/26 10:44:16;;;;;;;27.58;14.00;;;14.40;99.90;;;;;;5089888;28;20107;-90
2022/03/26 10:47:13;;;;;;;21.08;9.45;;;14.50;99.90;;;;;;5086125;28;20104;-90
2022/03/26 10:49:40;;;;;;;17.25;7.35;;;14.70;99.90;;;;;;5073241;28;20036;-91
2022/03/26 10:52:13;;;;;;;15.75;7.25;;;14.80;99.90;;;;;;5073366;28;20044;-89
2022/03/26 10:54:39;;;;;;;18.50;7.75;;;14.80;99.90;;;;;;5073419;28;20037;-91
2022/03/26 10:57:05;;;;;;;19.55;9.60;;;14.80;99.90;;;;;;5073895;28;20056;-90
2022/03/26 10:59:38;;;;;;;16.83;9.55;;;14.70;99.90;;;;;;5073342;28;20021;-89
2022/03/26 11:02:03;;;;;;;22.10;9.05;;;14.80;99.90;;;;;;5076445;28;20480;-88
2022/03/26 11:04:32;;;;;;;14.73;8.98;;;14.90;99.90;;;;;;5082439;28;20071;-88
2022/03/26 11:06:58;;;;;;;23.55;11.02;;;14.90;99.90;;;;;;5077201;28;20020;-90
2022/03/26 11:09:28;;;;;;;22.15;10.63;;;14.90;99.90;;;;;;5085069;28;20051;-89
2022/03/26 11:11:56;;;;;;;18.30;8.68;;;15.00;99.90;;;;;;5092648;28;20054;-88
2022/03/26 11:14:43;;;;;;;22.30;10.57;;;15.10;99.90;;;;;;5084648;28;20016;-88
2022/03/26 11:17:33;;;;;;;24.40;11.48;;;15.30;99.90;;;;;;5091976;28;20036;-87
2022/03/26 11:20:37;;;;;;;26.20;10.52;;;15.40;99.90;;;;;;5092057;28;20024;-87
2022/03/26 11:23:32;;;;;;;22.23;9.93;;;15.40;99.90;;;;;;5087768;28;20476;-88
2022/03/26 11:26:52;;;;;;;25.35;12.43;;;15.40;99.90;;;;;;5065774;28;20489;-88
2022/03/26 11:29:25;;;;;;;23.25;12.38;;;15.40;99.90;;;;;;5072968;28;20111;-88
2022/03/26 11:32:18;;;;;;;21.73;9.10;;;15.40;99.90;;;;;;5072844;28;20511;-88
2022/03/26 11:34:46;;;;;;;17.30;8.70;;;15.40;99.90;;;;;;5073459;28;20481;-87
2022/03/26 11:37:13;;;;;;;22.15;9.88;;;15.50;99.90;;;;;;5072551;28;20044;-88
2022/03/26 11:39:52;;;;;;;23.58;11.25;;;15.50;99.90;;;;;;5072765;28;20025;-89
2022/03/26 11:42:35;;;;;;;19.98;10.80;;;15.60;99.90;;;;;;5072674;28;20055;-87
2022/03/26 11:51:15;;;;;;;21.67;10.95;;;15.70;99.90;;;;;;5081575;28;20507;-85
2022/03/26 11:53:49;;;;;;;21.55;10.15;;;15.70;99.90;;;;;;5092617;28;20023;-85
2022/03/26 11:56:24;;;;;;;17.98;7.95;;;15.60;99.90;;;;;;5092020;28;20043;-86
2022/03/26 11:59:16;;;;;;;20.00;8.82;;;15.70;99.90;;;;;;5092798;28;20024;-86
2022/03/26 12:01:47;;;;;;;20.15;10.90;;;15.80;99.90;;;;;;5091416;28;20032;-88
2022/03/26 12:04:20;;;;;;;18.77;10.88;;;15.90;99.90;;;;;;5092472;28;20026;-86
2022/03/26 12:07:10;;;;;;;20.98;11.05;;;15.90;99.90;;;;;;5092822;28;20120;-86
2022/03/26 12:09:40;;;;;;;15.65;7.75;;;15.90;99.90;;;;;;5092563;28;20024;-87
2022/03/26 12:12:11;;;;;;;15.75;8.80;;;15.80;99.90;;;;;;5090743;28;20027;-86
2022/03/26 12:15:05;;;;;;;13.75;7.90;;;16.00;99.90;;;;;;5092585;28;20028;-86
2022/03/26 12:18:06;;;;;;;13.15;7.75;;;16.10;99.20;;;;;;5077856;28;20028;-86
2022/03/26 12:20:45;;;;;;;13.60;8.32;;;16.10;99.90;;;;;;5076496;28;20020;-86
2022/03/26 12:23:19;;;;;;;12.93;7.72;;;16.30;99.90;;;;;;5076406;28;20017;-86
2022/03/26 12:25:46;;;;;;;18.63;9.55;;;16.40;99.30;;;;;;5076040;28;20028;-85
2022/03/26 12:28:14;;;;;;;12.25;6.82;;;16.40;98.10;;;;;;5076286;28;20055;-86
2022/03/26 12:30:54;;;;;;;14.38;8.77;;;16.40;96.90;;;;;;5076435;28;20108;-86
2022/03/26 12:33:22;;;;;;;15.43;8.88;;;16.40;97.20;;;;;;5076000;28;20510;-87
2022/03/26 12:35:50;;;;;;;12.38;6.72;;;16.50;98.30;;;;;;5075903;28;20407;-86
2022/03/26 12:38:28;;;;;;;14.63;8.25;;;16.50;85.70;;;;;;5092842;28;20028;-86
2022/03/26 12:40:59;;;;;;;17.83;9.93;;;16.60;87.50;;;;;;5075564;28;20025;-86
2022/03/26 12:43:35;;;;;;;20.88;10.10;;;16.60;94.60;;;;;;5075027;28;20024;-86
2022/03/26 12:46:07;;;;;;;21.08;9.40;;;16.60;95.70;;;;;;5074578;28;20051;-85
2022/03/26 12:48:58;;;;;;;20.20;9.63;;;16.70;91.50;;;;;;5075684;28;20029;-85
2022/03/26 12:51:28;;;;;;;25.70;10.85;;;16.60;92.10;;;;;;5075777;28;20021;-86
2022/03/26 12:53:58;;;;;;;20.15;10.45;;;16.80;90.80;;;;;;5074688;28;20381;-87
2022/03/26 12:56:27;;;;;;;19.00;9.68;;;17.00;89.00;;;;;;5075207;28;20564;-85
2022/03/26 12:59:00;;;;;;;17.02;8.13;;;17.00;90.40;;;;;;5075979;28;20342;-85
2022/03/26 13:01:27;;;;;;;16.50;8.13;;;17.10;73.90;;;;;;5074451;28;20028;-89
2022/03/26 13:03:54;;;;;;;16.58;9.55;;;17.20;74.00;;;;;;5074839;28;20021;-89
2022/03/26 13:06:25;;;;;;;13.52;8.10;;;17.10;70.50;;;;;;5076371;28;20050;-95
2022/03/26 13:09:11;;;;;;;12.60;7.75;;;17.10;69.60;;;;;;5076752;28;20024;-89